createdAt,value
2022-11-28T00:01:35.765Z,90.00
2022-11-28T00:04:02.663Z,89.65
2022-11-28T00:06:39.877Z,90.23
2022-11-28T00:09:09.673Z,89.91
2022-11-28T00:11:36.520Z,90.06
2022-11-28T00:14:03.207Z,90.93
2022-11-28T00:16:29.930Z,90.56
2022-11-28T00:18:59.068Z,90.20
2022-11-28T00:21:25.805Z,90.87
2022-11-28T00:23:56.249Z,90.85
2022-11-28T00:26:26.406Z,90.13
2022-11-28T00:28:53.683Z,90.91
2022-11-28T00:31:23.221Z,90.14
2022-11-28T00:33:50.693Z,90.19
2022-11-28T00:36:17.833Z,90.05
2022-11-28T00:38:44.979Z,90.36
2022-11-28T00:41:14.604Z,90.16
2022-11-28T00:43:42.780Z,90.47
2022-11-28T00:46:11.081Z,90.64
2022-11-28T00:48:39.409Z,90.36
2022-11-28T00:51:13.397Z,90.91
2022-11-28T00:53:42.545Z,90.98
2022-11-28T00:56:11.846Z,90.39
2022-11-28T00:58:39.566Z,90.22
2022-11-28T01:01:16.388Z,90.87
2022-11-28T01:03:43.442Z,91.36
2022-11-28T01:06:10.999Z,91.07
2022-11-28T01:08:38.079Z,90.92
2022-11-28T01:11:11.514Z,90.79
2022-11-28T01:13:38.120Z,90.78
2022-11-28T01:16:04.964Z,90.28
2022-11-28T01:18:31.646Z,90.86
2022-11-28T01:20:58.699Z,90.52
2022-11-28T01:23:25.335Z,90.01
2022-11-28T01:25:52.045Z,90.42
2022-11-28T01:28:18.821Z,90.57
2022-11-28T01:30:45.495Z,90.72
2022-11-28T01:33:12.317Z,90.75
2022-11-28T01:35:39.013Z,90.67
2022-11-28T01:38:05.827Z,90.82
2022-11-28T01:40:32.450Z,90.78
2022-11-28T01:42:59.148Z,90.84
2022-11-28T01:45:31.756Z,90.70
2022-11-28T01:48:02.581Z,90.63
2022-11-28T01:50:31.408Z,90.74
2022-11-28T01:53:01.926Z,90.75
2022-11-28T01:55:33.328Z,91.38
2022-11-28T01:58:00.276Z,91.39
2022-11-28T02:00:27.186Z,91.01
2022-11-28T02:03:05.255Z,91.27
2022-11-28T02:05:32.772Z,91.53
2022-11-28T02:07:59.625Z,91.43
2022-11-28T02:10:36.864Z,91.37
2022-11-28T02:13:23.490Z,91.62
2022-11-28T02:16:07.178Z,91.37
2022-11-28T02:19:06.011Z,91.66
2022-11-28T02:21:46.783Z,91.47
2022-11-28T02:24:16.496Z,91.06
2022-11-28T02:27:01.596Z,91.62
2022-11-28T02:29:43.579Z,91.15
2022-11-28T02:32:24.130Z,91.32
2022-11-28T02:35:08.634Z,91.35
2022-11-28T02:37:57.710Z,91.18
2022-11-28T02:40:41.016Z,91.37
2022-11-28T02:43:36.826Z,91.94
2022-11-28T02:46:54.718Z,92.49
2022-11-28T02:49:49.800Z,92.48
2022-11-28T02:52:23.760Z,92.57
2022-11-28T02:54:52.361Z,92.50
2022-11-28T02:57:19.075Z,92.60
2022-11-28T02:59:49.092Z,92.47
2022-11-28T03:02:25.129Z,92.82
2022-11-28T03:05:12.296Z,92.60
2022-11-28T03:07:48.180Z,92.60
2022-11-28T03:10:28.310Z,92.35
2022-11-28T03:13:36.690Z,92.94
2022-11-28T03:16:46.646Z,93.04
2022-11-28T03:19:27.623Z,92.44
2022-11-28T03:21:56.595Z,91.53
2022-11-28T03:24:38.040Z,91.81
2022-11-28T03:27:32.761Z,91.37
2022-11-28T03:30:15.088Z,92.15
2022-11-28T03:32:46.151Z,91.80
2022-11-28T03:35:18.225Z,91.36
2022-11-28T03:37:51.037Z,91.44
2022-11-28T03:40:24.693Z,92.34
2022-11-28T03:43:05.254Z,91.15
2022-11-28T03:45:39.425Z,91.11
2022-11-28T03:48:21.401Z,90.85
2022-11-28T03:50:57.766Z,91.25
2022-11-28T03:53:34.857Z,91.02
2022-11-28T03:56:14.880Z,91.80
2022-11-28T03:58:54.499Z,91.46
2022-11-28T04:01:34.322Z,92.14
2022-11-28T04:04:14.665Z,91.28
2022-11-28T04:06:53.694Z,90.61
2022-11-28T04:09:32.098Z,91.08
2022-11-28T04:12:08.050Z,90.51
2022-11-28T04:14:44.163Z,90.91
2022-11-28T04:17:19.244Z,90.26
2022-11-28T04:19:50.873Z,90.29
2022-11-28T04:22:52.984Z,89.94
2022-11-28T04:25:22.091Z,90.05
2022-11-28T04:27:55.377Z,89.57
2022-11-28T04:30:22.210Z,90.17
2022-11-28T04:32:59.472Z,90.01
2022-11-28T04:35:32.977Z,89.53
2022-11-28T04:38:01.652Z,89.56
2022-11-28T04:40:32.321Z,90.03
2022-11-28T04:43:08.820Z,90.16
2022-11-28T04:45:42.043Z,90.51
2022-11-28T04:48:12.569Z,91.26
2022-11-28T04:51:01.649Z,90.43
2022-11-28T04:53:33.119Z,90.07
2022-11-28T04:56:07.588Z,89.73
2022-11-28T04:58:39.438Z,90.50
2022-11-28T05:01:10.249Z,90.32
2022-11-28T05:03:42.425Z,90.43
2022-11-28T05:06:09.890Z,89.93
2022-11-28T05:08:36.630Z,89.97
2022-11-28T05:11:10.714Z,90.48
2022-11-28T05:13:39.416Z,90.70
2022-11-28T05:16:06.559Z,90.60
2022-11-28T05:18:46.308Z,91.30
2022-11-28T05:21:13.198Z,90.88
2022-11-28T05:23:42.574Z,90.69
2022-11-28T05:26:11.953Z,90.38
2022-11-28T05:28:39.335Z,90.50
2022-11-28T05:31:06.249Z,90.26
2022-11-28T05:33:34.376Z,90.90
2022-11-28T05:36:09.895Z,90.90
2022-11-28T05:38:39.598Z,90.66
2022-11-28T05:41:08.830Z,90.50
2022-11-28T05:43:36.012Z,91.09
2022-11-28T05:46:05.751Z,90.46
2022-11-28T05:48:32.697Z,90.31
2022-11-28T05:50:59.496Z,91.04
2022-11-28T05:53:26.501Z,90.72
2022-11-28T05:56:01.353Z,90.90
2022-11-28T05:58:30.358Z,90.57
2022-11-28T06:00:56.984Z,90.82
2022-11-28T06:03:28.797Z,90.23
2022-11-28T06:05:55.530Z,90.29
2022-11-28T06:08:25.278Z,89.87
2022-11-28T06:10:59.186Z,90.02
2022-11-28T06:13:25.825Z,89.77
2022-11-28T06:15:53.308Z,90.00
2022-11-28T06:18:19.865Z,90.26
2022-11-28T06:20:46.449Z,90.48
2022-11-28T06:23:13.626Z,90.21
2022-11-28T06:25:40.220Z,90.06
2022-11-28T06:28:09.564Z,90.07
2022-11-28T06:30:36.667Z,89.93
2022-11-28T06:33:05.752Z,89.32
2022-11-28T06:35:32.458Z,89.38
2022-11-28T06:37:59.178Z,89.28
2022-11-28T06:40:27.547Z,88.47
2022-11-28T06:42:54.231Z,88.78
2022-11-28T06:45:20.826Z,88.56
2022-11-28T06:47:50.857Z,88.48
2022-11-28T06:50:17.568Z,88.24
2022-11-28T06:52:46.655Z,89.24
2022-11-28T06:55:13.298Z,89.00
2022-11-28T06:57:39.935Z,88.27
2022-11-28T07:00:07.535Z,88.65
2022-11-28T07:02:34.231Z,88.25
2022-11-28T07:05:00.820Z,88.37
2022-11-28T07:07:27.499Z,88.66
2022-11-28T07:09:54.109Z,88.81
2022-11-28T07:12:20.859Z,88.51
2022-11-28T07:14:47.519Z,88.45
2022-11-28T07:17:14.132Z,88.42
2022-11-28T07:19:43.447Z,88.31
2022-11-28T07:22:12.778Z,88.43
2022-11-28T07:24:39.313Z,88.54
2022-11-28T07:27:06.032Z,88.50
2022-11-28T07:29:36.538Z,87.78
2022-11-28T07:32:07.933Z,88.31
2022-11-28T07:34:34.897Z,87.77
2022-11-28T07:37:01.678Z,87.97
2022-11-28T07:39:28.447Z,87.62
2022-11-28T07:41:55.362Z,87.22
2022-11-28T07:44:25.054Z,87.66
2022-11-28T07:46:52.261Z,87.95
2022-11-28T07:49:18.991Z,87.09
2022-11-28T07:51:45.882Z,86.74
2022-11-28T07:54:12.800Z,86.89
2022-11-28T07:57:10.718Z,87.30
2022-11-28T07:59:26.526Z,87.32
2022-11-28T08:01:53.933Z,87.04
2022-11-28T08:04:21.086Z,86.90
2022-11-28T08:06:47.739Z,86.62
2022-11-28T08:09:19.396Z,87.44
2022-11-28T08:11:46.026Z,86.04
2022-11-28T08:14:14.169Z,85.76
2022-11-28T08:16:44.821Z,85.97
2022-11-28T08:19:11.626Z,85.61
2022-11-28T08:21:38.815Z,86.12
2022-11-28T08:24:08.881Z,85.88
2022-11-28T08:26:36.729Z,86.06
2022-11-28T08:29:04.057Z,85.46
2022-11-28T08:31:34.550Z,85.73
2022-11-28T08:34:03.420Z,84.83
2022-11-28T08:36:30.167Z,85.26
2022-11-28T08:41:45.836Z,84.76
2022-11-28T08:44:14.621Z,84.70
2022-11-28T08:46:41.507Z,84.19
2022-11-28T08:49:11.122Z,84.10
2022-11-28T08:51:38.221Z,83.92
2022-11-28T08:54:08.712Z,84.15
2022-11-28T08:56:37.078Z,83.29
2022-11-28T08:59:04.342Z,83.36
2022-11-28T09:01:34.531Z,83.63
2022-11-28T09:04:01.871Z,82.90
2022-11-28T09:06:29.019Z,83.37
2022-11-28T09:08:55.805Z,82.54
2022-11-28T09:11:23.531Z,82.48
2022-11-28T09:13:51.207Z,82.05
2022-11-28T09:16:19.994Z,82.86
2022-11-28T09:18:51.792Z,82.51
2022-11-28T09:21:18.621Z,82.68
2022-11-28T09:23:45.799Z,83.15
2022-11-28T09:26:19.164Z,81.96
2022-11-28T09:28:48.569Z,81.78
2022-11-28T09:31:18.292Z,81.80
2022-11-28T09:33:46.350Z,81.36
2022-11-28T09:36:22.783Z,81.45
2022-11-28T09:38:57.750Z,80.91
2022-11-28T09:41:49.897Z,81.05
2022-11-28T09:44:42.970Z,80.39
2022-11-28T09:47:18.344Z,81.54
2022-11-28T09:50:16.758Z,80.29
2022-11-28T09:53:16.018Z,80.31
2022-11-28T09:55:48.915Z,80.24
2022-11-28T09:58:27.404Z,80.25
2022-11-28T10:01:18.178Z,80.38
2022-11-28T10:03:58.492Z,80.28
2022-11-28T10:06:45.244Z,79.19
2022-11-28T10:09:25.255Z,79.05
2022-11-28T10:12:06.179Z,79.81
2022-11-28T10:14:51.184Z,79.97
2022-11-28T10:17:44.909Z,79.53
2022-11-28T10:20:20.979Z,79.46
2022-11-28T10:22:59.241Z,78.75
2022-11-28T10:25:37.962Z,78.60
2022-11-28T10:28:19.647Z,78.61
2022-11-28T10:30:51.242Z,79.44
2022-11-28T10:33:34.286Z,79.09
2022-11-28T10:36:02.839Z,78.68
2022-11-28T10:38:37.211Z,78.10
2022-11-28T10:41:09.221Z,77.53
2022-11-28T10:43:45.346Z,77.97
2022-11-28T10:46:18.480Z,77.90
2022-11-28T10:49:00.691Z,78.26
2022-11-28T10:51:46.300Z,77.10
2022-11-28T10:54:44.256Z,77.69
2022-11-28T10:57:38.873Z,77.14
2022-11-28T11:00:19.646Z,76.95
2022-11-28T11:02:55.353Z,77.11
2022-11-28T11:05:30.163Z,76.67
2022-11-28T11:08:16.178Z,76.93
2022-11-28T11:11:01.788Z,75.96
2022-11-28T11:13:41.092Z,76.67
2022-11-28T11:16:14.902Z,77.28
2022-11-28T11:18:47.172Z,76.86
2022-11-28T11:21:38.260Z,77.14
2022-11-28T11:24:14.255Z,77.15
2022-11-28T11:26:46.589Z,76.88
2022-11-28T11:29:24.468Z,77.09
2022-11-28T11:31:55.007Z,77.33
2022-11-28T11:34:49.136Z,76.64
2022-11-28T11:37:40.687Z,77.40
2022-11-28T11:44:15.616Z,76.80
2022-11-28T11:46:52.543Z,76.81
2022-11-28T11:49:31.594Z,76.31
2022-11-28T11:52:02.841Z,76.67
2022-11-28T11:54:33.737Z,76.64
2022-11-28T11:57:30.646Z,75.73
2022-11-28T12:00:48.950Z,75.08
2022-11-28T12:03:46.706Z,75.49
2022-11-28T12:06:52.433Z,76.33
2022-11-28T12:11:06.844Z,75.65
2022-11-28T12:14:00.631Z,76.28
2022-11-28T12:16:37.451Z,76.41
2022-11-28T12:20:08.649Z,75.77
2022-11-28T12:23:35.137Z,76.58
2022-11-28T12:27:17.389Z,76.52
2022-11-28T12:30:47.156Z,76.50
2022-11-28T12:34:11.326Z,75.73
2022-11-28T12:37:10.485Z,76.52
2022-11-28T12:39:58.779Z,75.01
2022-11-28T12:42:42.382Z,76.11
2022-11-28T12:45:29.791Z,75.65
2022-11-28T12:48:04.279Z,75.44
2022-11-28T12:50:45.787Z,75.79
2022-11-28T12:54:00.145Z,75.00
2022-11-28T12:56:59.251Z,75.22
2022-11-28T12:59:44.580Z,75.11
2022-11-28T13:02:45.570Z,75.34
2022-11-28T13:05:40.541Z,74.57
2022-11-28T13:08:18.895Z,76.07
2022-11-28T13:10:57.985Z,76.17
2022-11-28T13:13:40.023Z,75.29
2022-11-28T13:16:33.827Z,76.25
2022-11-28T13:19:25.545Z,75.82
2022-11-28T13:23:02.456Z,76.22
2022-11-28T13:26:03.834Z,75.61
2022-11-28T13:28:50.031Z,75.83
2022-11-28T13:31:44.974Z,75.88
2022-11-28T13:34:16.883Z,76.09
2022-11-28T13:39:47.218Z,75.94
2022-11-28T13:45:31.918Z,76.19
2022-11-28T13:48:00.930Z,77.25
2022-11-28T13:50:33.929Z,76.51
2022-11-28T13:53:14.586Z,76.77
2022-11-28T13:55:53.739Z,77.33
2022-11-28T13:58:32.157Z,77.64
2022-11-28T14:01:15.484Z,77.62
2022-11-28T14:04:01.688Z,78.01
2022-11-28T14:06:48.227Z,77.47
2022-11-28T14:09:14.879Z,78.09
2022-11-28T14:11:51.762Z,77.91
2022-11-28T14:14:21.380Z,77.51
2022-11-28T14:17:27.383Z,78.15
2022-11-28T14:20:31.751Z,77.84
2022-11-28T14:23:22.268Z,77.83
2022-11-28T14:26:06.706Z,78.94
2022-11-28T14:28:40.756Z,78.61
2022-11-28T14:31:11.335Z,78.18
2022-11-28T14:33:43.709Z,78.93
2022-11-28T14:36:34.466Z,78.75
2022-11-28T14:39:04.757Z,79.08
2022-11-28T14:41:31.993Z,78.70
2022-11-28T14:44:36.515Z,78.94
2022-11-28T14:47:37.525Z,79.37
2022-11-28T14:50:07.305Z,78.99
2022-11-28T14:52:39.970Z,79.33
2022-11-28T14:55:26.086Z,79.28
2022-11-28T14:58:02.288Z,79.90
2022-11-28T15:00:44.020Z,79.78
2022-11-28T15:03:37.422Z,80.13
2022-11-28T15:06:36.112Z,80.87
2022-11-28T15:09:42.874Z,80.46
2022-11-28T15:12:21.688Z,80.38
2022-11-28T15:14:57.413Z,80.84
2022-11-28T15:17:30.752Z,81.42
2022-11-28T15:20:08.358Z,82.02
2022-11-28T15:27:10.809Z,82.64
2022-11-28T15:29:40.849Z,83.03
2022-11-28T15:32:17.421Z,82.91
2022-11-28T15:34:57.533Z,83.43
2022-11-28T15:40:26.626Z,84.04
2022-11-28T15:43:16.382Z,84.53
2022-11-28T15:46:17.459Z,84.93
2022-11-28T15:48:49.847Z,84.78
2022-11-28T15:51:35.771Z,85.02
2022-11-28T15:54:45.326Z,85.03
2022-11-28T15:57:38.797Z,85.62
2022-11-28T16:00:24.687Z,86.16
2022-11-28T16:03:22.373Z,86.28
2022-11-28T16:06:33.400Z,86.73
2022-11-28T16:09:09.570Z,87.21
2022-11-28T16:11:36.623Z,87.26
2022-11-28T16:14:22.764Z,87.46
2022-11-28T16:17:16.804Z,87.61
2022-11-28T16:20:07.533Z,88.43
2022-11-28T16:23:02.456Z,89.07
2022-11-28T16:25:42.527Z,89.28
2022-11-28T16:28:46.054Z,89.31
2022-11-28T16:31:32.346Z,89.39
2022-11-28T16:35:01.677Z,89.76
2022-11-28T16:37:43.176Z,89.79
2022-11-28T16:40:31.987Z,89.84
2022-11-28T16:43:23.476Z,90.24
2022-11-28T16:46:08.041Z,90.01
2022-11-28T16:48:39.455Z,90.42
2022-11-28T16:51:30.382Z,90.07
2022-11-28T16:55:07.201Z,90.24
2022-11-28T16:58:09.344Z,90.32
2022-11-28T17:01:19.756Z,91.07
2022-11-28T17:03:58.010Z,91.18
2022-11-28T17:06:31.654Z,91.00
2022-11-28T17:09:22.511Z,91.24
2022-11-28T17:12:27.189Z,91.05
2022-11-28T17:15:01.604Z,90.99
2022-11-28T17:17:30.977Z,91.20
2022-11-28T17:19:57.749Z,91.64
2022-11-28T17:23:22.656Z,91.44
2022-11-28T17:26:05.538Z,91.53
2022-11-28T17:29:09.879Z,91.55
2022-11-28T17:41:02.049Z,92.07
2022-11-28T17:44:20.534Z,92.17
2022-11-28T17:47:15.398Z,92.64
2022-11-28T17:54:00.569Z,93.31
2022-11-28T17:58:16.800Z,93.25
2022-11-28T17:59:41.734Z,93.02
2022-11-28T18:02:11.064Z,93.41
2022-11-28T18:04:41.120Z,93.72
2022-11-28T18:07:58.730Z,93.75
2022-11-28T18:10:28.767Z,94.33
2022-11-28T18:12:56.640Z,94.94
2022-11-28T18:15:23.550Z,94.53
2022-11-28T18:17:50.807Z,94.56
2022-11-28T18:20:20.474Z,95.27
2022-11-28T18:22:47.490Z,94.98
2022-11-28T18:25:20.723Z,95.12
2022-11-28T18:27:47.882Z,95.51
2022-11-28T18:30:15.327Z,95.12
2022-11-28T18:32:42.320Z,94.91
2022-11-28T18:35:12.280Z,95.28
2022-11-28T18:37:42.256Z,95.39
2022-11-28T18:40:11.621Z,95.06
2022-11-28T18:42:38.961Z,95.39
2022-11-28T18:45:06.201Z,95.52
2022-11-28T18:47:36.229Z,95.11
2022-11-28T18:50:03.412Z,95.82
2022-11-28T18:52:30.120Z,95.70
2022-11-28T18:54:56.959Z,95.64
2022-11-28T18:57:31.294Z,95.71
2022-11-28T19:00:11.997Z,95.93
2022-11-28T19:02:41.372Z,95.84
2022-11-28T19:05:19.613Z,96.02
2022-11-28T19:07:46.587Z,95.75
2022-11-28T19:10:15.699Z,95.91
2022-11-28T19:12:57.846Z,96.14
2022-11-28T19:15:24.849Z,96.20
2022-11-28T19:17:51.736Z,96.26
2022-11-28T19:20:19.864Z,96.71
2022-11-28T19:22:46.751Z,96.61
2022-11-28T19:25:13.796Z,96.46
2022-11-28T19:27:40.556Z,96.00
2022-11-28T19:30:08.243Z,96.42
2022-11-28T19:32:39.017Z,96.65
2022-11-28T19:35:05.860Z,96.83
2022-11-28T19:37:32.746Z,96.66
2022-11-28T19:40:02.492Z,96.88
2022-11-28T19:42:30.206Z,96.93
2022-11-28T19:45:11.887Z,97.00
2022-11-28T19:47:49.317Z,96.79
2022-11-28T19:50:16.237Z,96.65
2022-11-28T19:52:42.994Z,96.90
2022-11-28T19:55:12.593Z,96.56
2022-11-28T19:57:39.402Z,96.45
2022-11-28T20:00:06.776Z,96.76
2022-11-28T20:02:33.593Z,96.85
2022-11-28T20:05:00.373Z,97.04
2022-11-28T20:07:27.979Z,97.37
2022-11-28T20:09:55.011Z,97.30
2022-11-28T20:12:21.910Z,97.21
2022-11-28T20:14:48.663Z,96.98
2022-11-28T20:17:15.235Z,96.35
2022-11-28T20:19:45.243Z,96.74
2022-11-28T20:22:12.373Z,97.04
2022-11-28T20:24:39.300Z,96.73
2022-11-28T20:27:06.351Z,97.53
2022-11-28T20:29:33.405Z,97.57
2022-11-28T20:32:00.663Z,97.42
2022-11-28T20:34:27.496Z,97.36
2022-11-28T20:36:54.423Z,97.41
2022-11-28T20:39:21.380Z,97.84
2022-11-28T20:41:50.864Z,97.85
2022-11-28T20:44:19.076Z,97.80
2022-11-28T20:46:46.541Z,98.13
2022-11-28T20:49:15.285Z,97.77
2022-11-28T20:51:42.761Z,97.98
2022-11-28T20:54:12.084Z,97.64
2022-11-28T20:57:20.202Z,97.28
2022-11-28T20:59:30.437Z,97.43
2022-11-28T21:01:58.960Z,97.70
2022-11-28T21:04:25.654Z,97.90
2022-11-28T21:06:52.438Z,98.10
2022-11-28T21:09:20.464Z,98.00
2022-11-28T21:11:57.893Z,97.50
2022-11-28T21:14:25.293Z,97.74
2022-11-28T21:16:52.206Z,98.22
2022-11-28T21:19:19.095Z,98.16
2022-11-28T21:21:45.734Z,98.19
2022-11-28T21:24:13.953Z,97.93
2022-11-28T21:26:45.373Z,98.29
2022-11-28T21:29:16.555Z,98.81
2022-11-28T21:31:44.892Z,98.66
2022-11-28T21:34:14.417Z,98.75
2022-11-28T21:36:42.227Z,98.58
2022-11-28T21:39:12.780Z,98.58
2022-11-28T21:41:39.583Z,98.63
2022-11-28T21:44:06.330Z,99.35
2022-11-28T21:46:33.140Z,99.37
2022-11-28T21:48:59.863Z,99.36
2022-11-28T21:51:28.558Z,99.29
2022-11-28T21:53:57.384Z,99.07
2022-11-28T21:56:25.123Z,99.63
2022-11-28T21:58:51.915Z,99.84
2022-11-28T22:01:20.332Z,99.53
2022-11-28T22:03:50.191Z,99.55
2022-11-28T22:06:22.302Z,99.25
2022-11-28T22:08:51.127Z,100.00
2022-11-28T22:11:19.749Z,99.43
2022-11-28T22:13:49.017Z,99.41
2022-11-28T22:16:27.453Z,99.22
2022-11-28T22:18:57.845Z,99.80
2022-11-28T22:24:14.502Z,100.00
2022-11-28T22:26:42.402Z,100.00
2022-11-28T22:29:09.251Z,100.00
2022-11-28T22:31:36.153Z,100.00
2022-11-28T22:34:02.862Z,100.00
2022-11-28T22:36:29.654Z,100.00
2022-11-28T22:38:58.939Z,99.94
2022-11-28T22:41:29.355Z,99.55
2022-11-28T22:43:57.717Z,99.87
2022-11-28T22:46:24.644Z,100.00
2022-11-28T22:48:54.539Z,100.00
2022-11-28T22:51:23.950Z,100.00
2022-11-28T22:54:01.492Z,100.00
2022-11-28T22:56:33.058Z,100.00
2022-11-28T22:59:00.421Z,100.00
2022-11-28T23:01:30.239Z,100.00
2022-11-28T23:03:57.405Z,100.00
2022-11-28T23:06:29.776Z,100.00
2022-11-28T23:08:58.232Z,100.00
2022-11-28T23:11:27.707Z,100.00
2022-11-28T23:13:55.161Z,100.00
2022-11-28T23:16:25.167Z,100.00
2022-11-28T23:18:55.699Z,100.00
2022-11-28T23:21:23.771Z,100.00
2022-11-28T23:23:50.610Z,100.00
2022-11-28T23:26:24.219Z,100.00
2022-11-28T23:28:51.683Z,100.00
2022-11-28T23:31:24.280Z,100.00
2022-11-28T23:33:53.028Z,100.00
2022-11-28T23:36:22.408Z,100.00
2022-11-28T23:38:54.710Z,100.00
2022-11-28T23:41:21.747Z,100.00
2022-11-28T23:43:49.167Z,100.00
2022-11-28T23:46:17.330Z,100.00
2022-11-28T23:48:47.598Z,100.00
2022-11-28T23:51:20.991Z,100.00
2022-11-28T23:53:48.129Z,100.00
2022-11-28T23:56:17.685Z,100.00
2022-11-28T23:58:44.953Z,100.00
